Terminal Aerodrome Forecast
Issued by NWS Cleveland, OH

Home | Current Version | Previous Version | Graphics & Text | Print | Product List | Glossary On
Versions: 1 2 3 4 5 6 7 8 9 10 11 12 13 14 15 16 17
297
FTUS41 KCLE 152022 AAA
TAFMFD
TAF AMD
KMFD 152022Z 1520/1618 20015KT 3SM -RA BR BKN015 OVC050
      TEMPO 1520/1522 SCT015 OVC050
     FM160000 21015G25KT 5SM -SHRA BR OVC007
     FM160300 24012G20KT P6SM OVC007
     FM160600 26012G20KT P6SM SCT015 OVC025
     FM161400 28015G25KT P6SM BKN015=

USA.gov is the U.S. government's official web portal to all federal, state and local government web resources and services.